Collins, Arkansas
Current Conditions -  °F | °C
As of 7:53 PM on Sunday 25 Jan 2015 (Local Time) from KLLQ Reporting Station
Overcast Overcast  
Wind Chill: 53°   Ceiling: 9500
Heat Index: 53°   Visibility: 10mi
Dew Point: 32°   Wind: 13mph
Humidity: 45%   Direction: 300°WNW
Pressure: 29.94"   Gusts: 21mph
Location:  33.4898°N, 91.4556°W
Report Text: KLLQ 260153Z AUTO 30011G18KT 10SM SCT070 OVC095 12/00 A2994 RMK AO2 SLP137 T01170000
Loading
Personal Weather Stations






























Interactive Weather Map New forecast layout! Learn more

10-Day Weather Forecast

Advertisements
Track Severe Weather on mobile